sensor_id;sensor_type;location;lat;lon;timestamp;pressure;altitude;pressure_sealevel;temperature
6550;BMP280;15142;48.888;9.134;2023-05-07T00:01:13;97997.97;;;13.91
6550;BMP280;15142;48.888;9.134;2023-05-07T00:03:45;97993.75;;;13.95
6550;BMP280;15142;48.888;9.134;2023-05-07T00:06:14;97996.16;;;14.00
6550;BMP280;15142;48.888;9.134;2023-05-07T00:08:43;97995.56;;;14.03
6550;BMP280;15142;48.888;9.134;2023-05-07T00:11:11;97992.56;;;14.01
6550;BMP280;15142;48.888;9.134;2023-05-07T00:13:40;97997.22;;;13.99
6550;BMP280;15142;48.888;9.134;2023-05-07T00:16:09;98002.00;;;13.92
6550;BMP280;15142;48.888;9.134;2023-05-07T00:18:38;98006.84;;;13.94
6550;BMP280;15142;48.888;9.134;2023-05-07T00:21:09;98001.56;;;13.90
6550;BMP280;15142;48.888;9.134;2023-05-07T00:23:38;98000.53;;;13.91
6550;BMP280;15142;48.888;9.134;2023-05-07T00:26:07;97988.00;;;13.98
6550;BMP280;15142;48.888;9.134;2023-05-07T00:28:36;97990.69;;;13.93
6550;BMP280;15142;48.888;9.134;2023-05-07T00:31:05;97985.41;;;13.90
6550;BMP280;15142;48.888;9.134;2023-05-07T00:33:34;97986.16;;;13.90
6550;BMP280;15142;48.888;9.134;2023-05-07T00:36:04;97986.44;;;13.89
6550;BMP280;15142;48.888;9.134;2023-05-07T00:38:35;97981.88;;;13.77
6550;BMP280;15142;48.888;9.134;2023-05-07T00:41:04;97977.56;;;13.65
6550;BMP280;15142;48.888;9.134;2023-05-07T00:43:33;97973.03;;;13.62
6550;BMP280;15142;48.888;9.134;2023-05-07T00:46:02;97976.16;;;13.59
6550;BMP280;15142;48.888;9.134;2023-05-07T00:48:31;97973.34;;;13.47
6550;BMP280;15142;48.888;9.134;2023-05-07T00:51:00;97970.47;;;13.40
6550;BMP280;15142;48.888;9.134;2023-05-07T00:53:30;97972.69;;;13.33
6550;BMP280;15142;48.888;9.134;2023-05-07T00:56:01;97971.81;;;13.38
6550;BMP280;15142;48.888;9.134;2023-05-07T00:58:31;97968.50;;;13.37
6550;BMP280;15142;48.888;9.134;2023-05-07T01:01:00;97971.53;;;13.39
6550;BMP280;15142;48.888;9.134;2023-05-07T01:03:29;97964.56;;;13.40
6550;BMP280;15142;48.888;9.134;2023-05-07T01:05:59;97970.94;;;13.42
6550;BMP280;15142;48.888;9.134;2023-05-07T01:08:29;97968.94;;;13.39
6550;BMP280;15142;48.888;9.134;2023-05-07T01:11:03;97970.69;;;13.30
6550;BMP280;15142;48.888;9.134;2023-05-07T01:13:33;97970.22;;;13.28
6550;BMP280;15142;48.888;9.134;2023-05-07T01:16:03;97973.53;;;13.29
6550;BMP280;15142;48.888;9.134;2023-05-07T01:18:32;97961.97;;;13.31
6550;BMP280;15142;48.888;9.134;2023-05-07T01:21:01;97964.53;;;13.31
6550;BMP280;15142;48.888;9.134;2023-05-07T01:23:35;97963.75;;;13.31
6550;BMP280;15142;48.888;9.134;2023-05-07T01:26:05;97974.13;;;13.26
6550;BMP280;15142;48.888;9.134;2023-05-07T01:28:34;97970.34;;;13.23
6550;BMP280;15142;48.888;9.134;2023-05-07T01:31:03;97967.41;;;13.16
6550;BMP280;15142;48.888;9.134;2023-05-07T01:33:35;97975.09;;;13.16
6550;BMP280;15142;48.888;9.134;2023-05-07T01:36:06;97980.22;;;13.16
6550;BMP280;15142;48.888;9.134;2023-05-07T01:38:39;97973.78;;;13.19
6550;BMP280;15142;48.888;9.134;2023-05-07T01:41:09;97972.28;;;13.18
6550;BMP280;15142;48.888;9.134;2023-05-07T01:43:40;97959.19;;;13.19
6550;BMP280;15142;48.888;9.134;2023-05-07T01:46:10;97981.38;;;13.24
6550;BMP280;15142;48.888;9.134;2023-05-07T01:48:39;97968.06;;;13.22
6550;BMP280;15142;48.888;9.134;2023-05-07T01:51:12;97964.75;;;13.21
6550;BMP280;15142;48.888;9.134;2023-05-07T01:53:43;97967.66;;;13.28
6550;BMP280;15142;48.888;9.134;2023-05-07T01:56:18;97963.28;;;13.29
6550;BMP280;15142;48.888;9.134;2023-05-07T01:58:47;97962.53;;;13.28
6550;BMP280;15142;48.888;9.134;2023-05-07T02:01:17;97961.59;;;13.24
6550;BMP280;15142;48.888;9.134;2023-05-07T02:03:46;97973.19;;;13.22
6550;BMP280;15142;48.888;9.134;2023-05-07T02:06:22;97971.03;;;13.15
6550;BMP280;15142;48.888;9.134;2023-05-07T02:08:57;97963.72;;;13.09
6550;BMP280;15142;48.888;9.134;2023-05-07T02:11:26;97969.91;;;13.08
6550;BMP280;15142;48.888;9.134;2023-05-07T02:13:54;97971.72;;;13.08
6550;BMP280;15142;48.888;9.134;2023-05-07T02:16:24;97972.69;;;13.12
6550;BMP280;15142;48.888;9.134;2023-05-07T02:18:53;97971.78;;;13.16
6550;BMP280;15142;48.888;9.134;2023-05-07T02:21:22;97973.41;;;13.25
6550;BMP280;15142;48.888;9.134;2023-05-07T02:23:51;97971.44;;;13.31
6550;BMP280;15142;48.888;9.134;2023-05-07T02:26:22;97973.72;;;13.32
6550;BMP280;15142;48.888;9.134;2023-05-07T02:28:52;97974.19;;;13.34
6550;BMP280;15142;48.888;9.134;2023-05-07T02:31:21;97974.47;;;13.33
6550;BMP280;15142;48.888;9.134;2023-05-07T02:33:49;97965.22;;;13.23
6550;BMP280;15142;48.888;9.134;2023-05-07T02:36:18;97974.63;;;13.14
6550;BMP280;15142;48.888;9.134;2023-05-07T02:39:00;97983.84;;;13.15
6550;BMP280;15142;48.888;9.134;2023-05-07T02:41:31;97969.84;;;13.00
6550;BMP280;15142;48.888;9.134;2023-05-07T02:44:00;97969.66;;;12.96
6550;BMP280;15142;48.888;9.134;2023-05-07T02:46:30;97971.56;;;12.91
6550;BMP280;15142;48.888;9.134;2023-05-07T02:49:03;97973.09;;;12.92
6550;BMP280;15142;48.888;9.134;2023-05-07T02:51:33;97971.56;;;12.91
6550;BMP280;15142;48.888;9.134;2023-05-07T02:54:06;97966.97;;;12.80
6550;BMP280;15142;48.888;9.134;2023-05-07T02:56:37;97957.56;;;12.75
6550;BMP280;15142;48.888;9.134;2023-05-07T02:59:06;97960.78;;;12.67
6550;BMP280;15142;48.888;9.134;2023-05-07T03:01:39;97956.63;;;12.58
6550;BMP280;15142;48.888;9.134;2023-05-07T03:04:11;97954.56;;;12.47
6550;BMP280;15142;48.888;9.134;2023-05-07T03:06:39;97960.81;;;12.41
6550;BMP280;15142;48.888;9.134;2023-05-07T03:09:08;97951.44;;;12.36
6550;BMP280;15142;48.888;9.134;2023-05-07T03:11:40;97939.03;;;12.30
6550;BMP280;15142;48.888;9.134;2023-05-07T03:14:09;97949.81;;;12.27
6550;BMP280;15142;48.888;9.134;2023-05-07T03:16:38;97948.31;;;12.26
6550;BMP280;15142;48.888;9.134;2023-05-07T03:19:07;97946.09;;;12.20
6550;BMP280;15142;48.888;9.134;2023-05-07T03:21:36;97952.56;;;12.17
6550;BMP280;15142;48.888;9.134;2023-05-07T03:24:05;97948.97;;;12.18
6550;BMP280;15142;48.888;9.134;2023-05-07T03:26:34;97950.97;;;12.21
6550;BMP280;15142;48.888;9.134;2023-05-07T03:29:06;97948.31;;;12.26
6550;BMP280;15142;48.888;9.134;2023-05-07T03:31:35;97946.25;;;12.28
6550;BMP280;15142;48.888;9.134;2023-05-07T03:34:04;97946.78;;;12.25
6550;BMP280;15142;48.888;9.134;2023-05-07T03:36:35;97950.19;;;12.21
6550;BMP280;15142;48.888;9.134;2023-05-07T03:39:07;97943.94;;;12.13
6550;BMP280;15142;48.888;9.134;2023-05-07T03:41:39;97948.28;;;12.13
6550;BMP280;15142;48.888;9.134;2023-05-07T03:44:11;97944.50;;;12.10
6550;BMP280;15142;48.888;9.134;2023-05-07T03:46:41;97948.69;;;12.06
6550;BMP280;15142;48.888;9.134;2023-05-07T03:49:11;97947.00;;;12.02
6550;BMP280;15142;48.888;9.134;2023-05-07T03:51:39;97951.13;;;11.98
6550;BMP280;15142;48.888;9.134;2023-05-07T03:54:09;97947.78;;;11.97
6550;BMP280;15142;48.888;9.134;2023-05-07T03:56:42;97950.72;;;11.91
6550;BMP280;15142;48.888;9.134;2023-05-07T03:59:14;97949.56;;;11.84
6550;BMP280;15142;48.888;9.134;2023-05-07T04:01:45;97957.06;;;11.80
6550;BMP280;15142;48.888;9.134;2023-05-07T04:04:19;97952.22;;;11.79
6550;BMP280;15142;48.888;9.134;2023-05-07T04:06:47;97954.03;;;11.78
6550;BMP280;15142;48.888;9.134;2023-05-07T04:09:17;97960.00;;;11.74
6550;BMP280;15142;48.888;9.134;2023-05-07T04:11:47;97957.72;;;11.72
6550;BMP280;15142;48.888;9.134;2023-05-07T04:14:18;97961.28;;;11.71
6550;BMP280;15142;48.888;9.134;2023-05-07T04:16:48;97964.31;;;11.73
6550;BMP280;15142;48.888;9.134;2023-05-07T04:19:18;97964.91;;;11.84
6550;BMP280;15142;48.888;9.134;2023-05-07T04:21:50;97967.59;;;11.92
6550;BMP280;15142;48.888;9.134;2023-05-07T04:24:19;97970.47;;;12.04
6550;BMP280;15142;48.888;9.134;2023-05-07T04:26:48;97980.31;;;12.10
6550;BMP280;15142;48.888;9.134;2023-05-07T04:29:22;97980.69;;;12.17
6550;BMP280;15142;48.888;9.134;2023-05-07T04:31:51;97976.16;;;12.14
6550;BMP280;15142;48.888;9.134;2023-05-07T04:34:21;97983.19;;;12.22
6550;BMP280;15142;48.888;9.134;2023-05-07T04:36:51;97976.34;;;12.18
6550;BMP280;15142;48.888;9.134;2023-05-07T04:39:20;97978.47;;;12.16
6550;BMP280;15142;48.888;9.134;2023-05-07T04:41:49;97982.91;;;12.24
6550;BMP280;15142;48.888;9.134;2023-05-07T04:44:17;97981.75;;;12.29
6550;BMP280;15142;48.888;9.134;2023-05-07T04:46:50;97992.03;;;12.43
6550;BMP280;15142;48.888;9.134;2023-05-07T04:49:19;97993.44;;;12.49
6550;BMP280;15142;48.888;9.134;2023-05-07T04:51:49;97995.31;;;12.56
6550;BMP280;15142;48.888;9.134;2023-05-07T04:54:21;98000.78;;;12.63
6550;BMP280;15142;48.888;9.134;2023-05-07T04:56:51;97994.56;;;12.69
6550;BMP280;15142;48.888;9.134;2023-05-07T04:59:20;98000.03;;;12.76
6550;BMP280;15142;48.888;9.134;2023-05-07T05:01:52;97996.81;;;12.84
6550;BMP280;15142;48.888;9.134;2023-05-07T05:04:21;98001.38;;;12.87
6550;BMP280;15142;48.888;9.134;2023-05-07T05:06:50;97992.44;;;12.85
6550;BMP280;15142;48.888;9.134;2023-05-07T05:09:18;98001.75;;;12.94
6550;BMP280;15142;48.888;9.134;2023-05-07T05:11:47;98002.50;;;12.94
6550;BMP280;15142;48.888;9.134;2023-05-07T05:14:16;98007.06;;;12.84
6550;BMP280;15142;48.888;9.134;2023-05-07T05:16:45;98007.94;;;12.80
6550;BMP280;15142;48.888;9.134;2023-05-07T05:19:16;98017.03;;;12.86
6550;BMP280;15142;48.888;9.134;2023-05-07T05:21:45;98007.44;;;12.91
6550;BMP280;15142;48.888;9.134;2023-05-07T05:24:14;98019.38;;;12.95
6550;BMP280;15142;48.888;9.134;2023-05-07T05:26:43;98019.56;;;12.99
6550;BMP280;15142;48.888;9.134;2023-05-07T05:29:12;98027.63;;;13.06
6550;BMP280;15142;48.888;9.134;2023-05-07T05:31:42;98017.66;;;13.17
6550;BMP280;15142;48.888;9.134;2023-05-07T05:34:10;98034.81;;;13.39
6550;BMP280;15142;48.888;9.134;2023-05-07T05:36:43;98020.91;;;13.53
6550;BMP280;15142;48.888;9.134;2023-05-07T05:39:13;98011.19;;;13.63
6550;BMP280;15142;48.888;9.134;2023-05-07T05:41:45;98017.66;;;13.82
6550;BMP280;15142;48.888;9.134;2023-05-07T05:44:14;98019.25;;;14.00
6550;BMP280;15142;48.888;9.134;2023-05-07T05:46:43;98021.34;;;14.20
6550;BMP280;15142;48.888;9.134;2023-05-07T05:49:12;98024.59;;;14.42
6550;BMP280;15142;48.888;9.134;2023-05-07T05:51:44;98026.78;;;14.65
6550;BMP280;15142;48.888;9.134;2023-05-07T05:54:14;98013.78;;;14.78
6550;BMP280;15142;48.888;9.134;2023-05-07T05:56:43;98014.69;;;14.82
6550;BMP280;15142;48.888;9.134;2023-05-07T05:59:13;98014.41;;;14.84
6550;BMP280;15142;48.888;9.134;2023-05-07T06:01:42;98029.09;;;14.91
6550;BMP280;15142;48.888;9.134;2023-05-07T06:04:11;98035.91;;;15.04
6550;BMP280;15142;48.888;9.134;2023-05-07T06:06:39;98032.44;;;15.17
6550;BMP280;15142;48.888;9.134;2023-05-07T06:09:11;98031.97;;;15.32
6550;BMP280;15142;48.888;9.134;2023-05-07T06:11:43;98026.50;;;15.42
6550;BMP280;15142;48.888;9.134;2023-05-07T06:14:12;98025.91;;;15.36
6550;BMP280;15142;48.888;9.134;2023-05-07T06:16:41;98032.56;;;15.37
6550;BMP280;15142;48.888;9.134;2023-05-07T06:19:10;98032.88;;;15.52
6550;BMP280;15142;48.888;9.134;2023-05-07T06:21:40;98041.91;;;15.75
6550;BMP280;15142;48.888;9.134;2023-05-07T06:24:11;98033.72;;;15.81
6550;BMP280;15142;48.888;9.134;2023-05-07T06:26:40;98033.66;;;15.98
6550;BMP280;15142;48.888;9.134;2023-05-07T06:29:09;98035.75;;;16.13
6550;BMP280;15142;48.888;9.134;2023-05-07T06:31:40;98047.25;;;16.15
6550;BMP280;15142;48.888;9.134;2023-05-07T06:34:10;98047.25;;;16.15
6550;BMP280;15142;48.888;9.134;2023-05-07T06:36:40;98040.69;;;16.26
6550;BMP280;15142;48.888;9.134;2023-05-07T06:39:21;98034.31;;;16.32
6550;BMP280;15142;48.888;9.134;2023-05-07T06:41:52;98032.44;;;16.41
6550;BMP280;15142;48.888;9.134;2023-05-07T06:44:25;98036.78;;;16.49
6550;BMP280;15142;48.888;9.134;2023-05-07T06:47:04;98032.81;;;16.51
6550;BMP280;15142;48.888;9.134;2023-05-07T06:49:34;98034.50;;;16.56
6550;BMP280;15142;48.888;9.134;2023-05-07T06:52:03;98028.84;;;16.62
6550;BMP280;15142;48.888;9.134;2023-05-07T06:54:35;98028.84;;;16.82
6550;BMP280;15142;48.888;9.134;2023-05-07T06:57:04;98021.44;;;17.01
6550;BMP280;15142;48.888;9.134;2023-05-07T06:59:32;98023.09;;;17.05
6550;BMP280;15142;48.888;9.134;2023-05-07T07:02:02;98018.91;;;17.12
6550;BMP280;15142;48.888;9.134;2023-05-07T07:04:31;98021.94;;;17.14
6550;BMP280;15142;48.888;9.134;2023-05-07T07:07:04;98032.59;;;17.25
6550;BMP280;15142;48.888;9.134;2023-05-07T07:09:37;98026.72;;;17.36
6550;BMP280;15142;48.888;9.134;2023-05-07T07:12:07;98018.13;;;17.32
6550;BMP280;15142;48.888;9.134;2023-05-07T07:14:39;98025.94;;;17.56
6550;BMP280;15142;48.888;9.134;2023-05-07T07:17:08;98024.03;;;17.76
6550;BMP280;15142;48.888;9.134;2023-05-07T07:19:37;98012.13;;;17.84
6550;BMP280;15142;48.888;9.134;2023-05-07T07:22:06;98013.50;;;17.69
6550;BMP280;15142;48.888;9.134;2023-05-07T07:24:37;98029.56;;;17.75
6550;BMP280;15142;48.888;9.134;2023-05-07T07:27:09;98016.94;;;17.85
6550;BMP280;15142;48.888;9.134;2023-05-07T07:29:38;98015.78;;;17.94
6550;BMP280;15142;48.888;9.134;2023-05-07T07:32:07;98015.78;;;18.18
6550;BMP280;15142;48.888;9.134;2023-05-07T07:34:36;98029.25;;;18.23
6550;BMP280;15142;48.888;9.134;2023-05-07T07:37:06;98029.84;;;18.56
6550;BMP280;15142;48.888;9.134;2023-05-07T07:39:39;98026.63;;;18.59
6550;BMP280;15142;48.888;9.134;2023-05-07T07:42:08;98024.66;;;18.68
6550;BMP280;15142;48.888;9.134;2023-05-07T07:44:38;98040.38;;;18.74
6550;BMP280;15142;48.888;9.134;2023-05-07T07:47:10;98028.97;;;18.64
6550;BMP280;15142;48.888;9.134;2023-05-07T07:49:40;98023.63;;;18.45
6550;BMP280;15142;48.888;9.134;2023-05-07T07:52:10;98032.66;;;18.39
6550;BMP280;15142;48.888;9.134;2023-05-07T07:54:42;98043.16;;;18.43
6550;BMP280;15142;48.888;9.134;2023-05-07T07:57:11;98043.25;;;18.34
6550;BMP280;15142;48.888;9.134;2023-05-07T07:59:41;98031.38;;;18.45
6550;BMP280;15142;48.888;9.134;2023-05-07T08:02:12;98033.53;;;18.43
6550;BMP280;15142;48.888;9.134;2023-05-07T08:04:41;98023.19;;;18.43
6550;BMP280;15142;48.888;9.134;2023-05-07T08:07:11;98030.22;;;18.43
6550;BMP280;15142;48.888;9.134;2023-05-07T08:09:46;98032.91;;;18.46
6550;BMP280;15142;48.888;9.134;2023-05-07T08:12:18;98029.09;;;18.44
6550;BMP280;15142;48.888;9.134;2023-05-07T08:14:47;98036.44;;;18.42
6550;BMP280;15142;48.888;9.134;2023-05-07T08:17:16;98033.94;;;18.57
6550;BMP280;15142;48.888;9.134;2023-05-07T08:19:49;98038.81;;;18.58
6550;BMP280;15142;48.888;9.134;2023-05-07T08:22:18;98038.00;;;18.70
6550;BMP280;15142;48.888;9.134;2023-05-07T08:24:52;98042.31;;;18.77
6550;BMP280;15142;48.888;9.134;2023-05-07T08:27:21;98033.06;;;18.76
6550;BMP280;15142;48.888;9.134;2023-05-07T08:29:50;98033.59;;;18.82
6550;BMP280;15142;48.888;9.134;2023-05-07T08:32:20;98036.19;;;18.82
6550;BMP280;15142;48.888;9.134;2023-05-07T08:34:49;98033.41;;;19.02
6550;BMP280;15142;48.888;9.134;2023-05-07T08:37:18;98035.81;;;19.22
6550;BMP280;15142;48.888;9.134;2023-05-07T08:39:47;98031.31;;;19.34
6550;BMP280;15142;48.888;9.134;2023-05-07T08:42:23;98047.97;;;19.64
6550;BMP280;15142;48.888;9.134;2023-05-07T08:44:54;98047.66;;;19.96
6550;BMP280;15142;48.888;9.134;2023-05-07T08:47:29;98036.34;;;20.19
6550;BMP280;15142;48.888;9.134;2023-05-07T08:50:02;98041.47;;;20.49
6550;BMP280;15142;48.888;9.134;2023-05-07T08:52:31;98053.50;;;20.76
6550;BMP280;15142;48.888;9.134;2023-05-07T08:55:02;98039.09;;;20.97
6550;BMP280;15142;48.888;9.134;2023-05-07T08:57:34;98039.13;;;21.19
6550;BMP280;15142;48.888;9.134;2023-05-07T09:00:06;98039.38;;;21.33
6550;BMP280;15142;48.888;9.134;2023-05-07T09:02:38;98041.75;;;21.63
6550;BMP280;15142;48.888;9.134;2023-05-07T09:05:08;98042.72;;;21.77
6550;BMP280;15142;48.888;9.134;2023-05-07T09:07:38;98031.34;;;21.63
6550;BMP280;15142;48.888;9.134;2023-05-07T09:10:08;98027.56;;;21.57
6550;BMP280;15142;48.888;9.134;2023-05-07T09:12:42;98034.34;;;21.21
6550;BMP280;15142;48.888;9.134;2023-05-07T09:15:12;98031.75;;;21.02
6550;BMP280;15142;48.888;9.134;2023-05-07T09:17:43;98018.38;;;21.19
6550;BMP280;15142;48.888;9.134;2023-05-07T09:20:13;98021.88;;;21.74
6550;BMP280;15142;48.888;9.134;2023-05-07T09:22:42;98018.88;;;21.97
6550;BMP280;15142;48.888;9.134;2023-05-07T09:25:14;98013.28;;;22.21
6550;BMP280;15142;48.888;9.134;2023-05-07T09:27:45;98014.50;;;22.59
6550;BMP280;15142;48.888;9.134;2023-05-07T09:30:14;98005.22;;;22.62
6550;BMP280;15142;48.888;9.134;2023-05-07T09:32:43;98003.38;;;22.30
6550;BMP280;15142;48.888;9.134;2023-05-07T09:35:17;98001.06;;;22.25
6550;BMP280;15142;48.888;9.134;2023-05-07T09:37:52;97995.97;;;22.32
6550;BMP280;15142;48.888;9.134;2023-05-07T09:40:21;97996.69;;;22.61
6550;BMP280;15142;48.888;9.134;2023-05-07T09:42:55;97995.34;;;22.42
6550;BMP280;15142;48.888;9.134;2023-05-07T09:45:25;97990.31;;;22.59
6550;BMP280;15142;48.888;9.134;2023-05-07T09:47:56;97994.88;;;22.68
6550;BMP280;15142;48.888;9.134;2023-05-07T09:50:28;97996.78;;;23.07
6550;BMP280;15142;48.888;9.134;2023-05-07T09:52:58;97992.03;;;23.16
6550;BMP280;15142;48.888;9.134;2023-05-07T09:55:27;97995.63;;;23.47
6550;BMP280;15142;48.888;9.134;2023-05-07T09:57:59;97997.94;;;23.56
6550;BMP280;15142;48.888;9.134;2023-05-07T10:00:28;98000.91;;;23.58
6550;BMP280;15142;48.888;9.134;2023-05-07T10:03:07;98001.59;;;23.48
6550;BMP280;15142;48.888;9.134;2023-05-07T10:05:46;97990.81;;;23.49
6550;BMP280;15142;48.888;9.134;2023-05-07T10:08:15;97987.06;;;23.04
6550;BMP280;15142;48.888;9.134;2023-05-07T10:10:49;97974.00;;;23.44
6550;BMP280;15142;48.888;9.134;2023-05-07T10:13:25;97984.66;;;23.74
6550;BMP280;15142;48.888;9.134;2023-05-07T10:15:57;97976.88;;;23.81
6550;BMP280;15142;48.888;9.134;2023-05-07T10:18:30;97964.28;;;24.00
6550;BMP280;15142;48.888;9.134;2023-05-07T10:21:07;97969.78;;;23.82
6550;BMP280;15142;48.888;9.134;2023-05-07T10:23:38;97966.75;;;23.73
6550;BMP280;15142;48.888;9.134;2023-05-07T10:26:09;97970.41;;;24.35
6550;BMP280;15142;48.888;9.134;2023-05-07T10:28:43;97970.88;;;24.71
6550;BMP280;15142;48.888;9.134;2023-05-07T10:31:23;97964.13;;;24.70
6550;BMP280;15142;48.888;9.134;2023-05-07T10:33:58;97968.59;;;24.46
6550;BMP280;15142;48.888;9.134;2023-05-07T10:36:29;97964.34;;;24.18
6550;BMP280;15142;48.888;9.134;2023-05-07T10:39:00;97954.97;;;23.99
6550;BMP280;15142;48.888;9.134;2023-05-07T10:41:29;97954.84;;;23.75
6550;BMP280;15142;48.888;9.134;2023-05-07T10:44:01;97944.28;;;23.02
6550;BMP280;15142;48.888;9.134;2023-05-07T10:46:32;97959.84;;;22.98
6550;BMP280;15142;48.888;9.134;2023-05-07T10:49:16;97954.34;;;23.56
6550;BMP280;15142;48.888;9.134;2023-05-07T10:52:15;97966.31;;;24.41
6550;BMP280;15142;48.888;9.134;2023-05-07T10:55:19;97955.09;;;24.34
6550;BMP280;15142;48.888;9.134;2023-05-07T10:58:23;97954.69;;;24.18
6550;BMP280;15142;48.888;9.134;2023-05-07T11:01:00;97950.41;;;23.72
6550;BMP280;15142;48.888;9.134;2023-05-07T11:04:12;97952.09;;;23.51
6550;BMP280;15142;48.888;9.134;2023-05-07T11:10:03;97947.84;;;23.30
6550;BMP280;15142;48.888;9.134;2023-05-07T11:12:53;97944.72;;;23.11
6550;BMP280;15142;48.888;9.134;2023-05-07T11:15:44;97954.47;;;23.17
6550;BMP280;15142;48.888;9.134;2023-05-07T11:18:46;97945.69;;;23.39
6550;BMP280;15142;48.888;9.134;2023-05-07T11:21:34;97943.91;;;23.53
6550;BMP280;15142;48.888;9.134;2023-05-07T11:24:23;97949.00;;;23.36
6550;BMP280;15142;48.888;9.134;2023-05-07T11:26:57;97943.44;;;23.37
6550;BMP280;15142;48.888;9.134;2023-05-07T11:29:27;97939.75;;;23.42
6550;BMP280;15142;48.888;9.134;2023-05-07T11:32:03;97949.38;;;23.31
6550;BMP280;15142;48.888;9.134;2023-05-07T11:34:42;97943.69;;;23.22
6550;BMP280;15142;48.888;9.134;2023-05-07T11:37:11;97932.88;;;23.20
6550;BMP280;15142;48.888;9.134;2023-05-07T11:39:48;97938.03;;;23.10
6550;BMP280;15142;48.888;9.134;2023-05-07T11:42:27;97929.19;;;23.21
6550;BMP280;15142;48.888;9.134;2023-05-07T11:44:56;97932.09;;;23.16
6550;BMP280;15142;48.888;9.134;2023-05-07T11:47:25;97927.66;;;23.17
6550;BMP280;15142;48.888;9.134;2023-05-07T11:50:02;97932.44;;;23.11
6550;BMP280;15142;48.888;9.134;2023-05-07T11:52:31;97925.28;;;23.01
6550;BMP280;15142;48.888;9.134;2023-05-07T11:55:01;97933.16;;;23.05
6550;BMP280;15142;48.888;9.134;2023-05-07T11:57:30;97936.53;;;23.12
6550;BMP280;15142;48.888;9.134;2023-05-07T12:00:02;97937.38;;;23.23
6550;BMP280;15142;48.888;9.134;2023-05-07T12:02:38;97948.47;;;23.17
6550;BMP280;15142;48.888;9.134;2023-05-07T12:05:10;97950.03;;;23.21
6550;BMP280;15142;48.888;9.134;2023-05-07T12:07:38;97950.47;;;23.33
6550;BMP280;15142;48.888;9.134;2023-05-07T12:10:09;97958.34;;;23.40
6550;BMP280;15142;48.888;9.134;2023-05-07T12:12:39;97954.63;;;23.38
6550;BMP280;15142;48.888;9.134;2023-05-07T12:15:09;97948.22;;;23.32
6550;BMP280;15142;48.888;9.134;2023-05-07T12:17:38;97940.78;;;23.30
6550;BMP280;15142;48.888;9.134;2023-05-07T12:20:10;97933.63;;;23.17
6550;BMP280;15142;48.888;9.134;2023-05-07T12:22:40;97925.22;;;22.94
6550;BMP280;15142;48.888;9.134;2023-05-07T12:25:09;97933.28;;;22.79
6550;BMP280;15142;48.888;9.134;2023-05-07T12:27:40;97935.13;;;22.75
6550;BMP280;15142;48.888;9.134;2023-05-07T12:30:10;97935.13;;;22.79
6550;BMP280;15142;48.888;9.134;2023-05-07T12:32:40;97931.94;;;22.95
6550;BMP280;15142;48.888;9.134;2023-05-07T12:35:11;97937.97;;;23.03
6550;BMP280;15142;48.888;9.134;2023-05-07T12:37:40;97936.94;;;23.14
6550;BMP280;15142;48.888;9.134;2023-05-07T12:40:11;97941.41;;;23.14
6550;BMP280;15142;48.888;9.134;2023-05-07T12:42:40;97938.88;;;23.24
6550;BMP280;15142;48.888;9.134;2023-05-07T12:45:12;97944.16;;;23.31
6550;BMP280;15142;48.888;9.134;2023-05-07T12:47:43;97943.97;;;23.10
6550;BMP280;15142;48.888;9.134;2023-05-07T12:50:16;97961.69;;;22.94
6550;BMP280;15142;48.888;9.134;2023-05-07T12:52:47;97960.06;;;22.80
6550;BMP280;15142;48.888;9.134;2023-05-07T12:55:17;97973.75;;;22.41
6550;BMP280;15142;48.888;9.134;2023-05-07T12:57:48;97978.91;;;21.54
6550;BMP280;15142;48.888;9.134;2023-05-07T13:00:17;97972.19;;;21.31
6550;BMP280;15142;48.888;9.134;2023-05-07T13:02:46;97974.97;;;20.97
6550;BMP280;15142;48.888;9.134;2023-05-07T13:05:18;97967.41;;;20.70
6550;BMP280;15142;48.888;9.134;2023-05-07T13:07:52;97975.78;;;20.64
6550;BMP280;15142;48.888;9.134;2023-05-07T13:10:22;97973.41;;;20.56
6550;BMP280;15142;48.888;9.134;2023-05-07T13:12:51;97966.63;;;20.33
6550;BMP280;15142;48.888;9.134;2023-05-07T13:15:21;97977.47;;;20.19
6550;BMP280;15142;48.888;9.134;2023-05-07T13:17:50;97974.22;;;20.07
6550;BMP280;15142;48.888;9.134;2023-05-07T13:20:21;97978.97;;;19.86
6550;BMP280;15142;48.888;9.134;2023-05-07T13:22:50;97975.38;;;19.76
6550;BMP280;15142;48.888;9.134;2023-05-07T13:25:19;97975.59;;;19.71
6550;BMP280;15142;48.888;9.134;2023-05-07T13:27:47;97983.38;;;19.71
6550;BMP280;15142;48.888;9.134;2023-05-07T13:30:16;97982.91;;;19.65
6550;BMP280;15142;48.888;9.134;2023-05-07T13:32:45;97980.47;;;19.57
6550;BMP280;15142;48.888;9.134;2023-05-07T13:35:15;97986.56;;;19.49
6550;BMP280;15142;48.888;9.134;2023-05-07T13:37:46;97989.16;;;19.34
6550;BMP280;15142;48.888;9.134;2023-05-07T13:40:15;97985.69;;;19.15
6550;BMP280;15142;48.888;9.134;2023-05-07T13:42:44;97975.81;;;18.78
6550;BMP280;15142;48.888;9.134;2023-05-07T13:45:13;97981.13;;;18.19
6550;BMP280;15142;48.888;9.134;2023-05-07T13:47:42;97976.06;;;17.87
6550;BMP280;15142;48.888;9.134;2023-05-07T13:50:11;97966.59;;;17.79
6550;BMP280;15142;48.888;9.134;2023-05-07T13:52:41;97969.31;;;17.83
6550;BMP280;15142;48.888;9.134;2023-05-07T13:55:20;97976.06;;;17.75
6550;BMP280;15142;48.888;9.134;2023-05-07T13:57:55;97974.66;;;17.66
6550;BMP280;15142;48.888;9.134;2023-05-07T14:00:24;97982.06;;;17.56
6550;BMP280;15142;48.888;9.134;2023-05-07T14:02:53;97990.97;;;17.58
6550;BMP280;15142;48.888;9.134;2023-05-07T14:05:22;97987.22;;;17.67
6550;BMP280;15142;48.888;9.134;2023-05-07T14:07:52;98008.22;;;17.78
6550;BMP280;15142;48.888;9.134;2023-05-07T14:10:24;98021.88;;;17.78
6550;BMP280;15142;48.888;9.134;2023-05-07T14:12:52;98030.50;;;17.70
6550;BMP280;15142;48.888;9.134;2023-05-07T14:15:22;98037.81;;;17.57
6550;BMP280;15142;48.888;9.134;2023-05-07T14:17:50;98038.09;;;17.55
6550;BMP280;15142;48.888;9.134;2023-05-07T14:20:20;98049.06;;;17.64
6550;BMP280;15142;48.888;9.134;2023-05-07T14:22:48;98051.78;;;17.67
6550;BMP280;15142;48.888;9.134;2023-05-07T14:25:17;98042.59;;;17.58
6550;BMP280;15142;48.888;9.134;2023-05-07T14:27:53;98045.41;;;17.53
6550;BMP280;15142;48.888;9.134;2023-05-07T14:30:22;98044.66;;;17.53
6550;BMP280;15142;48.888;9.134;2023-05-07T14:32:51;98050.56;;;17.53
6550;BMP280;15142;48.888;9.134;2023-05-07T14:35:20;98051.22;;;17.62
6550;BMP280;15142;48.888;9.134;2023-05-07T14:37:49;98055.22;;;17.60
6550;BMP280;15142;48.888;9.134;2023-05-07T14:40:18;98053.59;;;17.55
6550;BMP280;15142;48.888;9.134;2023-05-07T14:42:46;98062.28;;;17.51
6550;BMP280;15142;48.888;9.134;2023-05-07T14:45:18;98065.50;;;17.48
6550;BMP280;15142;48.888;9.134;2023-05-07T14:47:46;98061.84;;;17.49